sensor_id;sensor_type;location;lat;lon;timestamp;pressure;altitude;pressure_sealevel;temperature
60003;BMP280;46322;52.018;8.702;2022-10-16T00:02:35;99791.47;;;21.92
60003;BMP280;46322;52.018;8.702;2022-10-16T00:07:35;99791.38;;;21.08
60003;BMP280;46322;52.018;8.702;2022-10-16T00:12:35;99808.81;;;21.34
60003;BMP280;46322;52.018;8.702;2022-10-16T00:17:35;99808.06;;;20.96
60003;BMP280;46322;52.018;8.702;2022-10-16T00:22:36;99789.75;;;21.18
60003;BMP280;46322;52.018;8.702;2022-10-16T00:27:36;99806.13;;;20.96
60003;BMP280;46322;52.018;8.702;2022-10-16T00:32:36;99802.72;;;20.48
60003;BMP280;46322;52.018;8.702;2022-10-16T00:37:36;99797.13;;;20.17
60003;BMP280;46322;52.018;8.702;2022-10-16T00:42:37;99799.59;;;20.49
60003;BMP280;46322;52.018;8.702;2022-10-16T00:47:46;99795.63;;;20.68
60003;BMP280;46322;52.018;8.702;2022-10-16T00:52:49;99787.19;;;21.03
60003;BMP280;46322;52.018;8.702;2022-10-16T00:57:51;99797.47;;;20.74
60003;BMP280;46322;52.018;8.702;2022-10-16T01:02:57;99798.31;;;21.05
60003;BMP280;46322;52.018;8.702;2022-10-16T01:13:10;99788.00;;;21.34
60003;BMP280;46322;52.018;8.702;2022-10-16T01:18:29;99812.47;;;20.31
60003;BMP280;46322;52.018;8.702;2022-10-16T01:29:03;99823.22;;;21.54
60003;BMP280;46322;52.018;8.702;2022-10-16T01:34:13;99823.69;;;20.70
60003;BMP280;46322;52.018;8.702;2022-10-16T01:39:15;99821.84;;;20.60
60003;BMP280;46322;52.018;8.702;2022-10-16T01:44:22;99824.50;;;20.05
60003;BMP280;46322;52.018;8.702;2022-10-16T01:49:29;99832.88;;;20.18
60003;BMP280;46322;52.018;8.702;2022-10-16T01:54:31;99839.84;;;20.19
60003;BMP280;46322;52.018;8.702;2022-10-16T01:59:57;99841.94;;;19.76
60003;BMP280;46322;52.018;8.702;2022-10-16T02:05:05;99830.41;;;20.45
60003;BMP280;46322;52.018;8.702;2022-10-16T02:10:11;99828.63;;;20.24
60003;BMP280;46322;52.018;8.702;2022-10-16T02:15:11;99831.31;;;20.75
60003;BMP280;46322;52.018;8.702;2022-10-16T02:20:12;99825.84;;;21.27
60003;BMP280;46322;52.018;8.702;2022-10-16T02:25:23;99819.41;;;20.76
60003;BMP280;46322;52.018;8.702;2022-10-16T02:30:30;99817.75;;;20.41
60003;BMP280;46322;52.018;8.702;2022-10-16T02:35:32;99820.66;;;20.06
60003;BMP280;46322;52.018;8.702;2022-10-16T02:40:33;99806.50;;;20.54
60003;BMP280;46322;52.018;8.702;2022-10-16T02:45:34;99814.47;;;20.68
60003;BMP280;46322;52.018;8.702;2022-10-16T02:50:34;99814.31;;;20.37
60003;BMP280;46322;52.018;8.702;2022-10-16T02:55:34;99823.16;;;20.38
60003;BMP280;46322;52.018;8.702;2022-10-16T03:00:43;99833.22;;;20.78
60003;BMP280;46322;52.018;8.702;2022-10-16T03:05:43;99822.22;;;21.41
60003;BMP280;46322;52.018;8.702;2022-10-16T03:10:44;99831.13;;;21.00
60003;BMP280;46322;52.018;8.702;2022-10-16T03:15:44;99845.00;;;20.95
60003;BMP280;46322;52.018;8.702;2022-10-16T03:20:50;99840.63;;;20.71
60003;BMP280;46322;52.018;8.702;2022-10-16T03:25:51;99850.09;;;21.27
60003;BMP280;46322;52.018;8.702;2022-10-16T03:30:52;99855.34;;;21.72
60003;BMP280;46322;52.018;8.702;2022-10-16T03:35:53;99834.88;;;21.10
60003;BMP280;46322;52.018;8.702;2022-10-16T03:40:53;99831.13;;;21.00
60003;BMP280;46322;52.018;8.702;2022-10-16T03:45:55;99839.16;;;22.02
60003;BMP280;46322;52.018;8.702;2022-10-16T03:51:15;99846.53;;;21.98
60003;BMP280;46322;52.018;8.702;2022-10-16T03:56:16;99858.59;;;21.60
60003;BMP280;46322;52.018;8.702;2022-10-16T04:01:16;99852.84;;;20.79
60003;BMP280;46322;52.018;8.702;2022-10-16T04:06:16;99837.59;;;20.65
60003;BMP280;46322;52.018;8.702;2022-10-16T04:11:17;99854.69;;;20.37
60003;BMP280;46322;52.018;8.702;2022-10-16T04:16:17;99845.09;;;20.88
60003;BMP280;46322;52.018;8.702;2022-10-16T04:21:18;99848.91;;;20.94
60003;BMP280;46322;52.018;8.702;2022-10-16T04:26:18;99846.59;;;21.30
60003;BMP280;46322;52.018;8.702;2022-10-16T04:31:18;99850.91;;;20.80
60003;BMP280;46322;52.018;8.702;2022-10-16T04:36:19;99858.34;;;22.35
60003;BMP280;46322;52.018;8.702;2022-10-16T04:41:19;99874.00;;;21.22
60003;BMP280;46322;52.018;8.702;2022-10-16T04:46:19;99871.03;;;21.50
60003;BMP280;46322;52.018;8.702;2022-10-16T04:51:19;99864.03;;;20.74
60003;BMP280;46322;52.018;8.702;2022-10-16T04:56:20;99883.88;;;22.03
60003;BMP280;46322;52.018;8.702;2022-10-16T05:01:21;99889.78;;;21.61
60003;BMP280;46322;52.018;8.702;2022-10-16T05:06:21;99902.75;;;22.03
60003;BMP280;46322;52.018;8.702;2022-10-16T05:11:21;99888.94;;;21.67
60003;BMP280;46322;52.018;8.702;2022-10-16T05:16:22;99891.44;;;21.51
60003;BMP280;46322;52.018;8.702;2022-10-16T05:21:22;99896.06;;;21.51
60003;BMP280;46322;52.018;8.702;2022-10-16T05:26:22;99890.88;;;21.67
60003;BMP280;46322;52.018;8.702;2022-10-16T05:31:23;99901.88;;;21.83
60003;BMP280;46322;52.018;8.702;2022-10-16T05:36:23;99914.16;;;21.54
60003;BMP280;46322;52.018;8.702;2022-10-16T05:41:23;99910.69;;;22.68
60003;BMP280;46322;52.018;8.702;2022-10-16T05:46:24;99914.94;;;22.69
60003;BMP280;46322;52.018;8.702;2022-10-16T05:51:24;99916.50;;;22.66
60003;BMP280;46322;52.018;8.702;2022-10-16T05:56:25;99935.16;;;22.03
60003;BMP280;46322;52.018;8.702;2022-10-16T06:01:25;99951.66;;;20.30
60003;BMP280;46322;52.018;8.702;2022-10-16T06:06:26;99949.88;;;21.61
60003;BMP280;46322;52.018;8.702;2022-10-16T06:11:29;99946.22;;;20.34
60003;BMP280;46322;52.018;8.702;2022-10-16T06:16:30;99953.56;;;20.30
60003;BMP280;46322;52.018;8.702;2022-10-16T06:21:30;99964.06;;;20.80
60003;BMP280;46322;52.018;8.702;2022-10-16T06:26:31;99973.38;;;20.64
60003;BMP280;46322;52.018;8.702;2022-10-16T06:31:31;99974.13;;;20.72
60003;BMP280;46322;52.018;8.702;2022-10-16T06:36:32;99978.44;;;21.14
60003;BMP280;46322;52.018;8.702;2022-10-16T06:41:33;99983.88;;;20.41
60003;BMP280;46322;52.018;8.702;2022-10-16T06:46:33;99993.13;;;21.51
60003;BMP280;46322;52.018;8.702;2022-10-16T06:51:34;99998.28;;;22.09
60003;BMP280;46322;52.018;8.702;2022-10-16T06:56:34;100003.53;;;21.90
60003;BMP280;46322;52.018;8.702;2022-10-16T07:01:37;100010.31;;;22.05
60003;BMP280;46322;52.018;8.702;2022-10-16T07:06:43;100019.97;;;21.17
60003;BMP280;46322;52.018;8.702;2022-10-16T07:11:46;100029.25;;;22.01
60003;BMP280;46322;52.018;8.702;2022-10-16T07:16:53;100033.78;;;21.26
60003;BMP280;46322;52.018;8.702;2022-10-16T07:21:54;100039.81;;;21.44
60003;BMP280;46322;52.018;8.702;2022-10-16T07:26:57;100050.38;;;21.69
60003;BMP280;46322;52.018;8.702;2022-10-16T07:32:05;100063.81;;;21.76
60003;BMP280;46322;52.018;8.702;2022-10-16T07:37:08;100064.19;;;21.30
60003;BMP280;46322;52.018;8.702;2022-10-16T07:42:09;100081.28;;;22.97
60003;BMP280;46322;52.018;8.702;2022-10-16T07:47:12;100098.84;;;22.51
60003;BMP280;46322;52.018;8.702;2022-10-16T07:52:13;100103.91;;;21.74
60003;BMP280;46322;52.018;8.702;2022-10-16T07:57:14;100108.41;;;21.43
60003;BMP280;46322;52.018;8.702;2022-10-16T08:02:18;100108.09;;;22.19
60003;BMP280;46322;52.018;8.702;2022-10-16T08:07:24;100126.91;;;21.41
60003;BMP280;46322;52.018;8.702;2022-10-16T08:12:25;100129.84;;;21.61
60003;BMP280;46322;52.018;8.702;2022-10-16T08:17:31;100125.03;;;23.15
60003;BMP280;46322;52.018;8.702;2022-10-16T08:22:35;100134.41;;;22.80
60003;BMP280;46322;52.018;8.702;2022-10-16T08:27:41;100132.94;;;22.75
60003;BMP280;46322;52.018;8.702;2022-10-16T08:32:44;100140.31;;;22.37
60003;BMP280;46322;52.018;8.702;2022-10-16T08:37:52;100159.44;;;23.64
60003;BMP280;46322;52.018;8.702;2022-10-16T08:53:18;100169.91;;;24.29
60003;BMP280;46322;52.018;8.702;2022-10-16T08:58:26;100185.69;;;23.67
60003;BMP280;46322;52.018;8.702;2022-10-16T09:04:13;100191.22;;;23.84
60003;BMP280;46322;52.018;8.702;2022-10-16T09:09:35;100200.59;;;23.52
60003;BMP280;46322;52.018;8.702;2022-10-16T09:15:12;100203.78;;;22.90
60003;BMP280;46322;52.018;8.702;2022-10-16T09:25:58;100212.28;;;23.96
60003;BMP280;46322;52.018;8.702;2022-10-16T09:30:59;100223.06;;;23.99
60003;BMP280;46322;52.018;8.702;2022-10-16T09:35:59;100221.56;;;24.18
60003;BMP280;46322;52.018;8.702;2022-10-16T09:41:01;100206.94;;;24.75
60003;BMP280;46322;52.018;8.702;2022-10-16T09:46:47;100216.81;;;23.79
60003;BMP280;46322;52.018;8.702;2022-10-16T09:51:36;100215.91;;;24.32
60003;BMP280;46322;52.018;8.702;2022-10-16T09:56:37;100225.28;;;24.48
60003;BMP280;46322;52.018;8.702;2022-10-16T10:01:44;100219.78;;;24.91
60003;BMP280;46322;52.018;8.702;2022-10-16T10:06:56;100234.34;;;24.18
60003;BMP280;46322;52.018;8.702;2022-10-16T10:11:58;100229.88;;;25.26
60003;BMP280;46322;52.018;8.702;2022-10-16T10:22:40;100245.41;;;25.74
60003;BMP280;46322;52.018;8.702;2022-10-16T10:33:38;100262.28;;;25.33
60003;BMP280;46322;52.018;8.702;2022-10-16T10:54:39;100265.53;;;25.61
60003;BMP280;46322;52.018;8.702;2022-10-16T10:59:58;100272.22;;;26.62
60003;BMP280;46322;52.018;8.702;2022-10-16T11:05:27;100284.44;;;24.92
60003;BMP280;46322;52.018;8.702;2022-10-16T11:10:32;100284.44;;;24.92
60003;BMP280;46322;52.018;8.702;2022-10-16T11:15:36;100271.22;;;25.82
60003;BMP280;46322;52.018;8.702;2022-10-16T11:20:41;100283.41;;;25.42
60003;BMP280;46322;52.018;8.702;2022-10-16T11:25:43;100293.19;;;25.36
60003;BMP280;46322;52.018;8.702;2022-10-16T11:36:16;100283.41;;;27.31
60003;BMP280;46322;52.018;8.702;2022-10-16T11:46:36;100288.03;;;28.90
60003;BMP280;46322;52.018;8.702;2022-10-16T11:51:39;100297.19;;;30.36
60003;BMP280;46322;52.018;8.702;2022-10-16T11:56:40;100298.53;;;30.50
60003;BMP280;46322;52.018;8.702;2022-10-16T12:01:43;100295.41;;;29.88
60003;BMP280;46322;52.018;8.702;2022-10-16T12:06:46;100308.81;;;30.55
60003;BMP280;46322;52.018;8.702;2022-10-16T12:11:49;100308.63;;;31.57
60003;BMP280;46322;52.018;8.702;2022-10-16T12:16:56;100307.69;;;30.20
60003;BMP280;46322;52.018;8.702;2022-10-16T12:21:57;100303.31;;;31.39
60003;BMP280;46322;52.018;8.702;2022-10-16T12:26:58;100319.41;;;31.13
60003;BMP280;46322;52.018;8.702;2022-10-16T12:31:58;100330.97;;;32.77
60003;BMP280;46322;52.018;8.702;2022-10-16T12:37:07;100330.78;;;33.35
60003;BMP280;46322;52.018;8.702;2022-10-16T12:47:24;100320.13;;;33.89
60003;BMP280;46322;52.018;8.702;2022-10-16T12:52:35;100331.78;;;31.80
60003;BMP280;46322;52.018;8.702;2022-10-16T13:03:20;100345.44;;;33.12
60003;BMP280;46322;52.018;8.702;2022-10-16T13:13:29;100363.59;;;35.16
60003;BMP280;46322;52.018;8.702;2022-10-16T13:18:49;100372.34;;;32.44
60003;BMP280;46322;52.018;8.702;2022-10-16T13:23:55;100366.19;;;32.64
60003;BMP280;46322;52.018;8.702;2022-10-16T13:29:00;100381.84;;;35.13
60003;BMP280;46322;52.018;8.702;2022-10-16T13:34:01;100377.31;;;35.69
60003;BMP280;46322;52.018;8.702;2022-10-16T13:44:20;100366.38;;;36.14
60003;BMP280;46322;52.018;8.702;2022-10-16T13:49:20;100391.72;;;34.83
60003;BMP280;46322;52.018;8.702;2022-10-16T13:54:20;100389.75;;;33.20
60003;BMP280;46322;52.018;8.702;2022-10-16T13:59:24;100392.50;;;34.01
60003;BMP280;46322;52.018;8.702;2022-10-16T14:04:25;100392.81;;;33.42
60003;BMP280;46322;52.018;8.702;2022-10-16T14:09:28;100394.44;;;31.73
60003;BMP280;46322;52.018;8.702;2022-10-16T14:14:42;100389.16;;;33.51
60003;BMP280;46322;52.018;8.702;2022-10-16T14:19:45;100400.50;;;32.15
60003;BMP280;46322;52.018;8.702;2022-10-16T14:24:46;100400.44;;;29.78
60003;BMP280;46322;52.018;8.702;2022-10-16T14:29:46;100407.34;;;30.19
60003;BMP280;46322;52.018;8.702;2022-10-16T14:34:52;100397.69;;;29.78
60003;BMP280;46322;52.018;8.702;2022-10-16T14:39:53;100403.81;;;30.73
60003;BMP280;46322;52.018;8.702;2022-10-16T14:44:54;100397.88;;;32.65
60003;BMP280;46322;52.018;8.702;2022-10-16T14:49:54;100397.91;;;32.50
60003;BMP280;46322;52.018;8.702;2022-10-16T14:54:55;100402.00;;;34.88
60003;BMP280;46322;52.018;8.702;2022-10-16T14:59:55;100400.75;;;33.40
60003;BMP280;46322;52.018;8.702;2022-10-16T15:04:55;100393.59;;;30.92
60003;BMP280;46322;52.018;8.702;2022-10-16T15:09:56;100403.34;;;29.43
60003;BMP280;46322;52.018;8.702;2022-10-16T15:14:56;100397.31;;;29.48
60003;BMP280;46322;52.018;8.702;2022-10-16T15:19:56;100411.81;;;29.85
60003;BMP280;46322;52.018;8.702;2022-10-16T15:24:56;100406.97;;;30.71
60003;BMP280;46322;52.018;8.702;2022-10-16T15:29:56;100420.41;;;30.15
60003;BMP280;46322;52.018;8.702;2022-10-16T15:34:56;100426.31;;;30.40
60003;BMP280;46322;52.018;8.702;2022-10-16T15:39:56;100421.53;;;28.63
60003;BMP280;46322;52.018;8.702;2022-10-16T15:44:57;100419.47;;;29.20
60003;BMP280;46322;52.018;8.702;2022-10-16T15:50:17;100429.75;;;28.03
60003;BMP280;46322;52.018;8.702;2022-10-16T15:55:18;100414.72;;;27.35
60003;BMP280;46322;52.018;8.702;2022-10-16T16:00:19;100409.88;;;26.85
60003;BMP280;46322;52.018;8.702;2022-10-16T16:05:21;100405.25;;;26.69
60003;BMP280;46322;52.018;8.702;2022-10-16T16:10:28;100414.22;;;25.13
60003;BMP280;46322;52.018;8.702;2022-10-16T16:15:29;100435.09;;;24.97
60003;BMP280;46322;52.018;8.702;2022-10-16T16:20:30;100445.22;;;26.24
60003;BMP280;46322;52.018;8.702;2022-10-16T16:25:31;100443.25;;;25.92
60003;BMP280;46322;52.018;8.702;2022-10-16T16:30:32;100428.88;;;27.01
60003;BMP280;46322;52.018;8.702;2022-10-16T16:35:33;100434.78;;;26.55
60003;BMP280;46322;52.018;8.702;2022-10-16T16:40:33;100451.84;;;25.71
60003;BMP280;46322;52.018;8.702;2022-10-16T16:45:36;100450.63;;;25.91
60003;BMP280;46322;52.018;8.702;2022-10-16T16:50:45;100461.50;;;25.91
60003;BMP280;46322;52.018;8.702;2022-10-16T16:55:46;100464.72;;;25.67
60003;BMP280;46322;52.018;8.702;2022-10-16T17:00:46;100456.53;;;25.86
60003;BMP280;46322;52.018;8.702;2022-10-16T17:06:02;100470.28;;;25.40
60003;BMP280;46322;52.018;8.702;2022-10-16T17:11:04;100473.88;;;25.13
60003;BMP280;46322;52.018;8.702;2022-10-16T17:16:05;100475.31;;;24.98
60003;BMP280;46322;52.018;8.702;2022-10-16T17:21:07;100467.53;;;25.00
60003;BMP280;46322;52.018;8.702;2022-10-16T17:26:13;100473.25;;;23.75
60003;BMP280;46322;52.018;8.702;2022-10-16T17:31:18;100484.88;;;24.02
60003;BMP280;46322;52.018;8.702;2022-10-16T17:36:20;100502.97;;;24.39
60003;BMP280;46322;52.018;8.702;2022-10-16T17:41:22;100507.31;;;24.60
60003;BMP280;46322;52.018;8.702;2022-10-16T17:46:23;100505.34;;;23.77
60003;BMP280;46322;52.018;8.702;2022-10-16T17:51:26;100511.41;;;23.84
60003;BMP280;46322;52.018;8.702;2022-10-16T17:56:28;100502.72;;;25.47
60003;BMP280;46322;52.018;8.702;2022-10-16T18:01:34;100491.78;;;23.43
60003;BMP280;46322;52.018;8.702;2022-10-16T18:06:35;100482.34;;;23.88
60003;BMP280;46322;52.018;8.702;2022-10-16T18:11:35;100510.34;;;23.37
60003;BMP280;46322;52.018;8.702;2022-10-16T18:16:36;100520.50;;;24.58
60003;BMP280;46322;52.018;8.702;2022-10-16T18:21:36;100542.16;;;25.55
60003;BMP280;46322;52.018;8.702;2022-10-16T18:26:37;100535.00;;;24.18
60003;BMP280;46322;52.018;8.702;2022-10-16T18:31:38;100531.56;;;23.46
60003;BMP280;46322;52.018;8.702;2022-10-16T18:36:40;100531.31;;;24.31
60003;BMP280;46322;52.018;8.702;2022-10-16T18:41:42;100531.34;;;24.85
60003;BMP280;46322;52.018;8.702;2022-10-16T18:46:42;100541.91;;;25.46
60003;BMP280;46322;52.018;8.702;2022-10-16T18:51:43;100551.13;;;25.05
60003;BMP280;46322;52.018;8.702;2022-10-16T18:56:43;100543.88;;;24.75
60003;BMP280;46322;52.018;8.702;2022-10-16T19:01:43;100544.81;;;23.74
60003;BMP280;46322;52.018;8.702;2022-10-16T19:06:46;100530.97;;;23.27
60003;BMP280;46322;52.018;8.702;2022-10-16T19:11:47;100537.56;;;23.19
60003;BMP280;46322;52.018;8.702;2022-10-16T19:16:47;100519.63;;;22.91
60003;BMP280;46322;52.018;8.702;2022-10-16T19:21:47;100520.66;;;22.53
60003;BMP280;46322;52.018;8.702;2022-10-16T19:26:48;100516.78;;;23.09
60003;BMP280;46322;52.018;8.702;2022-10-16T19:31:48;100527.31;;;22.97
60003;BMP280;46322;52.018;8.702;2022-10-16T19:36:51;100511.03;;;23.04
60003;BMP280;46322;52.018;8.702;2022-10-16T19:41:52;100511.88;;;23.42
60003;BMP280;46322;52.018;8.702;2022-10-16T19:46:52;100530.53;;;22.01
60003;BMP280;46322;52.018;8.702;2022-10-16T19:51:52;100528.81;;;23.05
60003;BMP280;46322;52.018;8.702;2022-10-16T19:56:53;100541.56;;;22.42
60003;BMP280;46322;52.018;8.702;2022-10-16T20:01:53;100535.34;;;22.48
60003;BMP280;46322;52.018;8.702;2022-10-16T20:06:53;100546.00;;;22.73
60003;BMP280;46322;52.018;8.702;2022-10-16T20:11:53;100533.88;;;23.44
60003;BMP280;46322;52.018;8.702;2022-10-16T20:16:55;100541.72;;;23.31
60003;BMP280;46322;52.018;8.702;2022-10-16T20:21:55;100556.19;;;22.44
60003;BMP280;46322;52.018;8.702;2022-10-16T20:26:56;100569.25;;;22.56
60003;BMP280;46322;52.018;8.702;2022-10-16T20:31:56;100578.72;;;21.99
60003;BMP280;46322;52.018;8.702;2022-10-16T20:36:56;100580.78;;;22.68
60003;BMP280;46322;52.018;8.702;2022-10-16T20:41:56;100594.19;;;21.91
60003;BMP280;46322;52.018;8.702;2022-10-16T20:46:57;100623.09;;;21.94
60003;BMP280;46322;52.018;8.702;2022-10-16T20:51:57;100630.03;;;21.88
60003;BMP280;46322;52.018;8.702;2022-10-16T20:56:57;100596.50;;;22.90
60003;BMP280;46322;52.018;8.702;2022-10-16T21:01:58;100583.81;;;22.84
60003;BMP280;46322;52.018;8.702;2022-10-16T21:07:02;100605.50;;;22.63
60003;BMP280;46322;52.018;8.702;2022-10-16T21:12:03;100599.16;;;22.10
60003;BMP280;46322;52.018;8.702;2022-10-16T21:17:03;100598.97;;;22.64
60003;BMP280;46322;52.018;8.702;2022-10-16T21:22:03;100608.00;;;22.21
60003;BMP280;46322;52.018;8.702;2022-10-16T21:27:06;100600.53;;;22.50
60003;BMP280;46322;52.018;8.702;2022-10-16T21:32:06;100577.56;;;22.90
60003;BMP280;46322;52.018;8.702;2022-10-16T21:37:06;100581.84;;;21.87
60003;BMP280;46322;52.018;8.702;2022-10-16T21:42:07;100584.56;;;21.83
60003;BMP280;46322;52.018;8.702;2022-10-16T21:47:07;100581.91;;;22.77
60003;BMP280;46322;52.018;8.702;2022-10-16T21:52:07;100583.88;;;23.28
60003;BMP280;46322;52.018;8.702;2022-10-16T21:57:08;100577.38;;;23.15
60003;BMP280;46322;52.018;8.702;2022-10-16T22:02:08;100591.19;;;22.73
60003;BMP280;46322;52.018;8.702;2022-10-16T22:07:08;100590.09;;;22.60
60003;BMP280;46322;52.018;8.702;2022-10-16T22:12:09;100577.56;;;22.90
60003;BMP280;46322;52.018;8.702;2022-10-16T22:17:09;100575.44;;;22.64
60003;BMP280;46322;52.018;8.702;2022-10-16T22:22:09;100575.28;;;21.91
60003;BMP280;46322;52.018;8.702;2022-10-16T22:27:09;100557.09;;;20.74
60003;BMP280;46322;52.018;8.702;2022-10-16T22:32:10;100548.28;;;20.92
60003;BMP280;46322;52.018;8.702;2022-10-16T22:37:10;100559.88;;;21.10
60003;BMP280;46322;52.018;8.702;2022-10-16T22:42:10;100565.59;;;20.80
60003;BMP280;46322;52.018;8.702;2022-10-16T22:47:11;100558.75;;;21.39
60003;BMP280;46322;52.018;8.702;2022-10-16T22:52:11;100557.97;;;21.18
60003;BMP280;46322;52.018;8.702;2022-10-16T22:57:11;100556.44;;;21.48
60003;BMP280;46322;52.018;8.702;2022-10-16T23:02:11;100556.78;;;21.08
60003;BMP280;46322;52.018;8.702;2022-10-16T23:07:12;100544.22;;;20.25
60003;BMP280;46322;52.018;8.702;2022-10-16T23:12:12;100545.09;;;20.51
60003;BMP280;46322;52.018;8.702;2022-10-16T23:17:12;100546.03;;;21.15
60003;BMP280;46322;52.018;8.702;2022-10-16T23:22:13;100542.50;;;20.79
60003;BMP280;46322;52.018;8.702;2022-10-16T23:27:13;100550.28;;;21.30
60003;BMP280;46322;52.018;8.702;2022-10-16T23:32:13;100541.78;;;21.14
60003;BMP280;46322;52.018;8.702;2022-10-16T23:37:14;100545.25;;;21.82
60003;BMP280;46322;52.018;8.702;2022-10-16T23:42:14;100542.56;;;21.39
60003;BMP280;46322;52.018;8.702;2022-10-16T23:47:14;100544.50;;;21.42
60003;BMP280;46322;52.018;8.702;2022-10-16T23:52:14;100543.34;;;21.29
60003;BMP280;46322;52.018;8.702;2022-10-16T23:57:16;100532.50;;;21.68
